Time;durP1;ratioP1;P1;durP2;ratioP2;P2;SDS_P1;SDS_P2;PMS_P1;PMS_P2;Temp;Humidity;BMP_temperature;BMP_pressure;BME280_temperature;BME280_humidity;BME280_pressure;Samples;Min_cycle;Max_cycle;Signal;HPM_P1;HPM_P2
2023/02/08 00:01:50;;;;;;;13.82;7.60;;;;;;;-5.09;59.96;96330.22;5130887;27;20410;-76
2023/02/08 00:04:15;;;;;;;12.77;8.18;;;;;;;-5.02;59.69;96342.06;5115425;27;20524;-76
2023/02/08 00:06:41;;;;;;;14.35;8.50;;;;;;;-5.66;60.89;96243.09;5076428;28;20485;-76
2023/02/08 00:09:07;;;;;;;18.10;9.98;;;;;;;-4.98;59.79;96346.31;5115713;27;20028;-76
2023/02/08 00:11:33;;;;;;;13.68;7.95;;;;;;;-5.92;59.62;96227.84;5130428;27;20462;-76
2023/02/08 00:13:58;;;;;;;13.88;8.40;;;;;;;-5.25;59.72;96346.22;5093374;28;20061;-75
2023/02/08 00:16:24;;;;;;;16.48;9.30;;;;;;;-5.49;60.68;96340.25;5093336;28;20023;-76
2023/02/08 00:18:49;;;;;;;15.77;10.35;;;;;;;-5.34;60.75;96356.34;5101528;28;20487;-76
2023/02/08 00:21:15;;;;;;;16.65;9.90;;;;;;;-5.25;60.51;96356.38;5076306;28;20027;-76
2023/02/08 00:23:41;;;;;;;15.20;8.85;;;;;;;-5.13;61.10;96356.38;5095003;28;20039;-76
2023/02/08 00:26:06;;;;;;;15.32;8.50;;;;;;;-5.06;62.00;96364.88;5130188;27;20053;-76
2023/02/08 00:28:32;;;;;;;15.50;9.35;;;;;;;-5.39;60.79;96311.56;5113687;27;20038;-76
2023/02/08 00:30:58;;;;;;;14.95;9.90;;;;;;;-4.91;60.25;96354.75;5119003;27;20031;-75
2023/02/08 00:33:23;;;;;;;14.98;8.82;;;;;;;-4.88;59.45;96361.53;5111328;28;20050;-76
2023/02/08 00:35:49;;;;;;;17.10;10.20;;;;;;;-4.96;59.63;96376.72;5110068;28;20047;-76
2023/02/08 00:38:14;;;;;;;14.40;8.30;;;;;;;-4.96;58.95;96354.78;5111364;28;20032;-76
2023/02/08 00:40:39;;;;;;;16.00;8.90;;;;;;;-4.83;59.18;96382.66;5124014;28;20084;-76
2023/02/08 00:43:05;;;;;;;14.30;8.45;;;;;;;-4.78;58.77;96376.75;5130549;28;20436;-76
2023/02/08 00:45:31;;;;;;;15.18;7.93;;;;;;;-4.78;58.13;96381.00;5113365;28;20080;-76
2023/02/08 00:47:57;;;;;;;18.52;8.77;;;;;;;-5.50;58.29;96270.16;5094351;28;20087;-76
2023/02/08 00:50:22;;;;;;;13.70;8.23;;;;;;;-4.96;59.04;96382.66;5092893;28;20038;-76
2023/02/08 00:52:48;;;;;;;15.57;9.23;;;;;;;-4.81;58.75;96386.06;5104429;28;20043;-76
2023/02/08 00:55:13;;;;;;;14.88;10.38;;;;;;;-5.31;58.75;96287.94;5102889;28;20040;-76
2023/02/08 00:57:39;;;;;;;18.30;11.57;;;;;;;-5.12;58.57;96304.88;5120953;28;20551;-76
2023/02/08 01:00:05;;;;;;;17.50;11.07;;;;;;;-5.09;58.79;96296.44;5110038;28;20043;-76
2023/02/08 01:02:30;;;;;;;15.63;9.30;;;;;;;-4.73;58.14;96359.88;5109251;28;20031;-76
2023/02/08 01:04:56;;;;;;;17.15;9.55;;;;;;;-4.91;58.33;96308.28;5109899;28;20481;-76
2023/02/08 01:07:21;;;;;;;15.30;9.75;;;;;;;-5.05;57.87;96280.38;5121920;28;20034;-76
2023/02/08 01:09:47;;;;;;;15.13;9.25;;;;;;;-4.90;58.06;96312.50;5123080;28;20508;-76
2023/02/08 01:12:12;;;;;;;15.13;9.45;;;;;;;-4.28;58.13;96391.19;5092660;28;20092;-76
2023/02/08 01:14:38;;;;;;;16.17;9.23;;;;;;;-4.24;57.04;96392.00;5092694;28;20046;-76
2023/02/08 01:17:03;;;;;;;15.82;8.95;;;;;;;-4.87;57.74;96310.00;5112171;28;20122;-75
2023/02/08 01:19:29;;;;;;;17.45;9.68;;;;;;;-4.58;57.44;96366.63;5075620;28;20024;-76
2023/02/08 01:21:55;;;;;;;14.77;8.80;;;;;;;-4.37;57.54;96382.72;5075841;28;20101;-75
2023/02/08 01:24:20;;;;;;;18.27;10.48;;;;;;;-4.35;58.42;96381.84;5092751;28;20031;-76
2023/02/08 01:26:46;;;;;;;25.00;13.05;;;;;;;-4.94;57.55;96282.06;5112443;27;20512;-76
2023/02/08 01:29:11;;;;;;;14.98;9.07;;;;;;;-4.32;58.17;96371.75;5075793;28;20445;-76
2023/02/08 01:31:38;;;;;;;15.45;9.20;;;;;;;-4.32;57.77;96373.41;5092348;28;20047;-75
2023/02/08 01:34:03;;;;;;;14.55;9.35;;;;;;;-4.35;57.75;96375.94;5093619;28;20469;-76
2023/02/08 01:36:29;;;;;;;14.55;9.77;;;;;;;-4.84;58.46;96290.56;5092944;28;20067;-76
2023/02/08 01:38:55;;;;;;;17.67;11.55;;;;;;;-4.74;58.17;96304.06;5113371;28;20034;-75
2023/02/08 01:41:22;;;;;;;20.92;12.27;;;;;;;-4.54;57.73;96340.44;5098407;28;20402;-75
2023/02/08 01:44:14;;;;;;;20.10;12.75;;;;;;;-4.27;58.50;96377.63;5114481;28;20486;-76
2023/02/08 01:46:41;;;;;;;23.27;12.65;;;;;;;-5.14;58.81;96265.19;5105540;28;20061;-76
2023/02/08 01:49:31;;;;;;;17.13;9.68;;;;;;;-4.96;58.50;96299.00;5121627;27;20121;-76
2023/02/08 01:52:04;;;;;;;15.05;9.52;;;;;;;-4.44;58.47;96381.03;5112376;27;20081;-76
2023/02/08 01:54:43;;;;;;;23.50;12.93;;;;;;;-4.50;58.64;96372.56;5114218;27;20042;-76
2023/02/08 01:57:08;;;;;;;16.60;10.07;;;;;;;-5.10;58.29;96272.75;5133687;27;20118;-76
2023/02/08 02:00:02;;;;;;;17.67;9.25;;;;;;;-4.31;58.24;96397.97;5133590;27;20036;-76
2023/02/08 02:02:27;;;;;;;15.60;9.32;;;;;;;-5.18;57.78;96259.25;5114220;27;20032;-76
2023/02/08 02:04:53;;;;;;;14.68;8.75;;;;;;;-4.42;58.54;96376.81;5108119;28;20527;-76
2023/02/08 02:07:19;;;;;;;15.23;9.48;;;;;;;-4.34;58.31;96390.34;5112944;28;20408;-75
2023/02/08 02:10:20;;;;;;;15.63;9.55;;;;;;;-4.74;59.65;96393.66;5096222;27;20100;-76
2023/02/08 02:12:46;;;;;;;14.18;8.90;;;;;;;-4.70;59.24;96379.31;5074039;28;20044;-75
2023/02/08 02:15:11;;;;;;;17.33;10.30;;;;;;;-4.46;59.24;96397.94;5095641;28;20059;-76
2023/02/08 02:17:37;;;;;;;17.75;10.02;;;;;;;-4.78;59.42;96353.94;5095716;28;20128;-76
2023/02/08 02:20:11;;;;;;;18.33;10.05;;;;;;;-4.35;58.67;96403.84;5109433;27;20034;-76
2023/02/08 02:23:14;;;;;;;15.60;10.00;;;;;;;-4.54;58.81;96403.88;5123834;27;20042;-76
2023/02/08 02:25:48;;;;;;;16.48;10.77;;;;;;;-4.79;59.73;96409.72;5119021;27;20036;-75
2023/02/08 02:28:20;;;;;;;13.75;9.13;;;;;;;-4.64;59.85;96411.44;5113613;27;20019;-76
2023/02/08 02:31:11;;;;;;;17.05;9.45;;;;;;;-4.78;59.38;96370.84;5132440;27;20067;-76
2023/02/08 02:33:40;;;;;;;16.02;9.45;;;;;;;-5.01;58.64;96333.63;5132978;27;20087;-76
2023/02/08 02:36:20;;;;;;;14.55;9.48;;;;;;;-4.59;59.35;96382.72;5132792;27;20028;-75
2023/02/08 02:39:04;;;;;;;14.75;9.10;;;;;;;-4.43;59.54;96419.09;5096511;28;20036;-76
2023/02/08 02:45:04;;;;;;;15.63;9.40;;;;;;;-4.41;59.37;96416.53;5121360;27;20326;-76
2023/02/08 02:47:51;;;;;;;14.70;8.73;;;;;;;-4.34;59.49;96413.19;5115650;27;20087;-76
2023/02/08 02:50:30;;;;;;;17.58;9.43;;;;;;;-4.36;59.10;96410.63;5112685;27;20037;-76
2023/02/08 02:53:29;;;;;;;15.60;9.75;;;;;;;-4.48;59.42;96410.63;5095666;28;20039;-76
2023/02/08 02:56:01;;;;;;;15.73;9.70;;;;;;;-4.44;60.13;96406.41;5111752;27;20405;-75
2023/02/08 02:58:26;;;;;;;16.05;9.38;;;;;;;-4.68;60.13;96361.53;5095124;28;20035;-76
2023/02/08 03:00:55;;;;;;;14.00;9.20;;;;;;;-4.98;60.25;96323.50;5077684;28;20416;-76
2023/02/08 03:03:23;;;;;;;15.82;10.40;;;;;;;-4.37;59.76;96415.72;5106347;27;20038;-76
2023/02/08 03:05:49;;;;;;;18.92;9.93;;;;;;;-5.03;59.85;96307.44;5094928;28;20046;-76
2023/02/08 03:08:36;;;;;;;16.83;10.85;;;;;;;-4.36;60.20;96420.78;5118049;27;20590;-76
2023/02/08 03:11:10;;;;;;;15.88;9.15;;;;;;;-4.34;59.42;96418.25;5133458;27;20039;-76
2023/02/08 03:13:54;;;;;;;17.17;10.20;;;;;;;-4.37;60.37;96413.19;5124276;27;20131;-76
2023/02/08 03:16:30;;;;;;;23.70;13.20;;;;;;;-5.05;61.76;96385.13;5111393;28;20038;-75
2023/02/08 03:19:05;;;;;;;30.45;17.05;;;;;;;-4.66;62.31;96428.34;5095559;28;20035;-76
2023/02/08 03:21:39;;;;;;;28.83;15.70;;;;;;;-4.81;62.99;96426.63;5128512;27;20085;-76
2023/02/08 03:24:13;;;;;;;24.00;14.98;;;;;;;-4.88;63.69;96424.91;5095544;28;20414;-75
2023/02/08 03:27:07;;;;;;;25.80;14.52;;;;;;;-5.31;64.48;96429.81;5111017;28;20570;-75
2023/02/08 03:29:35;;;;;;;26.30;14.73;;;;;;;-5.66;66.22;96430.47;5106911;28;20044;-75
2023/02/08 03:32:20;;;;;;;28.55;14.95;;;;;;;-5.71;66.09;96429.59;5109970;27;20058;-76
2023/02/08 03:35:10;;;;;;;25.30;14.30;;;;;;;-5.76;66.67;96426.22;5098350;27;20042;-76
2023/02/08 03:37:47;;;;;;;26.88;14.77;;;;;;;-6.25;67.84;96429.25;5112783;28;20425;-76
2023/02/08 03:40:17;;;;;;;26.08;14.40;;;;;;;-6.73;67.13;96320.97;5096523;27;20187;-76
2023/02/08 03:42:43;;;;;;;27.23;14.38;;;;;;;-6.50;67.22;96364.97;5087997;27;20023;-76
2023/02/08 03:45:16;;;;;;;29.55;14.77;;;;;;;-6.61;67.57;96377.53;5089432;28;20047;-76
2023/02/08 03:47:41;;;;;;;25.08;13.57;;;;;;;-6.19;68.07;96446.16;5112610;28;20031;-76
2023/02/08 03:50:08;;;;;;;29.00;15.32;;;;;;;-6.60;68.15;96402.00;5118573;27;20036;-75
2023/02/08 03:52:34;;;;;;;27.05;14.88;;;;;;;-6.43;68.19;96444.28;5100674;28;20047;-76
2023/02/08 03:55:02;;;;;;;25.50;14.05;;;;;;;-6.76;68.98;96408.56;5130835;27;20456;-76
2023/02/08 03:57:29;;;;;;;28.17;14.77;;;;;;;-7.25;69.35;96349.94;5109007;28;20051;-76
2023/02/08 04:00:00;;;;;;;30.40;15.57;;;;;;;-7.40;69.69;96362.44;5111355;27;20526;-76
2023/02/08 04:02:27;;;;;;;29.58;15.50;;;;;;;-6.98;70.03;96414.25;5110573;28;20031;-76
2023/02/08 04:04:52;;;;;;;29.65;14.90;;;;;;;-6.64;69.73;96445.75;5076891;28;20053;-76
2023/02/08 04:07:18;;;;;;;28.60;13.95;;;;;;;-6.60;68.94;96444.97;5093597;28;20555;-76
2023/02/08 04:09:44;;;;;;;30.40;14.13;;;;;;;-7.14;68.84;96389.66;5099987;27;20032;-76
2023/02/08 04:12:09;;;;;;;27.95;15.30;;;;;;;-6.64;69.17;96449.97;5131201;27;20086;-75
2023/02/08 04:14:35;;;;;;;37.30;19.90;;;;;;;-6.72;69.61;96414.50;5113750;27;20042;-76
2023/02/08 04:17:00;;;;;;;27.90;14.70;;;;;;;-7.15;68.16;96322.28;5113307;27;20023;-76
2023/02/08 04:19:26;;;;;;;28.00;14.00;;;;;;;-6.55;68.01;96447.53;5113715;27;20030;-76
2023/02/08 04:21:51;;;;;;;26.13;13.68;;;;;;;-6.50;68.00;96445.91;5127537;27;20023;-76
2023/02/08 04:24:17;;;;;;;46.03;22.83;;;;;;;-6.80;68.33;96414.44;5124661;27;20396;-76
2023/02/08 04:26:42;;;;;;;39.55;20.63;;;;;;;-6.48;68.23;96459.41;5113782;27;20050;-76
2023/02/08 04:29:08;;;;;;;38.28;19.85;;;;;;;-7.05;67.99;96362.81;5115219;27;20523;-76
2023/02/08 04:31:33;;;;;;;46.50;22.60;;;;;;;-6.50;68.02;96450.94;5104196;28;20047;-76
2023/02/08 04:33:59;;;;;;;43.25;21.60;;;;;;;-7.08;67.59;96355.19;5094866;27;20115;-76
2023/02/08 04:36:24;;;;;;;31.60;15.73;;;;;;;-6.36;67.41;96464.56;5115881;27;20027;-76
2023/02/08 04:38:49;;;;;;;26.67;13.98;;;;;;;-6.37;66.52;96472.16;5111277;28;20027;-76
2023/02/08 04:41:15;;;;;;;34.40;19.60;;;;;;;-6.95;65.94;96391.53;5113794;28;20038;-76
2023/02/08 04:43:40;;;;;;;29.17;15.60;;;;;;;-6.42;65.39;96468.75;5119871;28;20086;-76
2023/02/08 04:46:06;;;;;;;21.48;13.07;;;;;;;-6.62;65.42;96471.91;5105142;28;20077;-76
2023/02/08 04:48:31;;;;;;;24.90;13.13;;;;;;;-7.26;65.64;96370.16;5111197;28;20067;-76
2023/02/08 04:50:57;;;;;;;25.52;14.07;;;;;;;-6.71;66.03;96473.47;5128492;28;20413;-76
2023/02/08 04:53:23;;;;;;;29.02;15.15;;;;;;;-7.46;67.37;96359.84;5107969;28;20173;-76
2023/02/08 04:55:49;;;;;;;26.85;14.27;;;;;;;-6.77;66.77;96485.25;5120739;28;20039;-76
2023/02/08 04:58:14;;;;;;;26.08;14.98;;;;;;;-6.92;67.39;96490.13;5111217;28;20028;-76
2023/02/08 05:00:40;;;;;;;23.55;13.88;;;;;;;-7.02;67.14;96486.66;5109003;28;20046;-76
2023/02/08 05:03:05;;;;;;;24.75;14.23;;;;;;;-7.08;67.43;96500.88;5118800;27;20102;-76
2023/02/08 05:05:31;;;;;;;27.40;14.68;;;;;;;-7.10;67.08;96507.56;5109840;28;20032;-76
2023/02/08 05:07:57;;;;;;;25.63;14.07;;;;;;;-7.09;67.09;96514.34;5109770;28;20024;-76
2023/02/08 05:10:22;;;;;;;32.58;16.05;;;;;;;-7.02;67.22;96521.16;5092786;28;20035;-76
2023/02/08 05:12:48;;;;;;;28.23;13.57;;;;;;;-7.54;67.05;96454.84;5128340;27;20031;-76
2023/02/08 05:15:13;;;;;;;27.92;14.52;;;;;;;-7.20;67.57;96517.56;5100194;27;20023;-76
2023/02/08 05:17:39;;;;;;;23.25;14.02;;;;;;;-7.17;66.91;96523.50;5100266;27;20042;-76
2023/02/08 05:20:05;;;;;;;27.30;13.63;;;;;;;-7.24;67.72;96527.63;5097400;27;20039;-76
2023/02/08 05:22:33;;;;;;;24.13;13.63;;;;;;;-7.40;68.46;96523.19;5096902;28;20034;-76
2023/02/08 05:24:59;;;;;;;28.35;14.23;;;;;;;-7.52;68.78;96508.69;5080718;28;20046;-76
2023/02/08 05:27:25;;;;;;;24.45;14.68;;;;;;;-7.21;68.62;96536.09;5106960;28;20024;-75
2023/02/08 05:29:50;;;;;;;22.55;12.80;;;;;;;-7.24;68.62;96536.06;5112058;27;20122;-75
2023/02/08 05:32:15;;;;;;;21.25;12.50;;;;;;;-7.30;68.63;96530.03;5123168;27;20502;-75
2023/02/08 05:34:41;;;;;;;26.85;13.73;;;;;;;-7.26;68.38;96535.16;5126003;27;20035;-77
2023/02/08 05:37:07;;;;;;;21.27;12.85;;;;;;;-7.22;68.20;96528.47;5113371;27;20493;-77
2023/02/08 05:39:32;;;;;;;26.33;15.20;;;;;;;-7.23;68.12;96522.59;5096186;28;20105;-76
2023/02/08 05:41:58;;;;;;;24.35;13.65;;;;;;;-7.83;68.54;96434.22;5096473;27;20020;-76
2023/02/08 05:44:23;;;;;;;23.83;13.52;;;;;;;-7.74;67.67;96437.75;5096205;28;20501;-76
2023/02/08 05:46:49;;;;;;;22.92;13.15;;;;;;;-7.59;67.62;96458.97;5079309;28;20032;-76
2023/02/08 05:49:14;;;;;;;24.83;13.00;;;;;;;-7.33;67.96;96525.81;5094383;28;20513;-76
2023/02/08 05:51:40;;;;;;;22.83;12.90;;;;;;;-7.20;68.00;96542.81;5113265;28;20378;-76
2023/02/08 05:54:05;;;;;;;27.70;14.10;;;;;;;-7.56;68.26;96474.16;5096078;28;20135;-76
2023/02/08 05:56:31;;;;;;;28.75;14.70;;;;;;;-7.54;68.43;96458.19;5107620;28;20030;-76
2023/02/08 05:58:59;;;;;;;24.25;13.30;;;;;;;-6.95;68.41;96553.25;5087882;27;20035;-76
2023/02/08 06:01:24;;;;;;;27.05;15.23;;;;;;;-6.94;68.60;96544.84;5087143;27;20031;-76
2023/02/08 06:03:50;;;;;;;31.13;16.02;;;;;;;-6.91;69.46;96544.88;5129587;27;20043;-76
2023/02/08 06:06:15;;;;;;;25.98;14.88;;;;;;;-6.85;69.27;96546.63;5106472;27;20163;-76
2023/02/08 06:08:41;;;;;;;28.52;15.23;;;;;;;-7.15;68.90;96477.22;5131396;27;20052;-76
2023/02/08 06:11:06;;;;;;;28.92;15.05;;;;;;;-6.59;68.39;96546.97;5126969;27;20051;-76
2023/02/08 06:13:32;;;;;;;31.35;15.20;;;;;;;-7.35;68.24;96438.22;5095623;27;20030;-76
2023/02/08 06:15:57;;;;;;;28.20;14.82;;;;;;;-6.71;68.17;96549.31;5094926;27;20023;-76
2023/02/08 06:18:23;;;;;;;24.73;15.15;;;;;;;-6.53;68.25;96554.59;5129265;27;20416;-76
2023/02/08 06:20:51;;;;;;;32.97;16.95;;;;;;;-6.78;67.81;96521.44;5127708;27;20080;-76
2023/02/08 06:23:17;;;;;;;26.67;14.80;;;;;;;-6.49;67.61;96555.47;5129904;27;20472;-76
2023/02/08 06:25:42;;;;;;;29.95;15.90;;;;;;;-6.86;67.85;96489.34;5107914;28;20031;-76
2023/02/08 06:28:09;;;;;;;27.77;14.68;;;;;;;-7.08;67.48;96456.22;5126448;27;20034;-76
2023/02/08 06:30:36;;;;;;;28.05;14.50;;;;;;;-7.09;67.21;96433.50;5125783;27;20549;-76
2023/02/08 06:33:01;;;;;;;25.02;15.02;;;;;;;-6.57;66.82;96513.28;5106570;27;20527;-76
2023/02/08 06:35:27;;;;;;;29.77;14.00;;;;;;;-6.33;66.56;96564.94;5113466;27;20060;-76
2023/02/08 06:37:53;;;;;;;27.98;14.93;;;;;;;-6.27;66.70;96574.28;5085012;27;20098;-76
2023/02/08 06:40:18;;;;;;;28.40;14.93;;;;;;;-6.89;66.80;96458.97;5108212;27;20027;-76
2023/02/08 06:42:46;;;;;;;30.58;15.40;;;;;;;-6.53;66.42;96501.50;5107001;27;20031;-76
2023/02/08 06:45:11;;;;;;;27.15;14.98;;;;;;;-6.07;66.19;96577.88;5108968;27;20032;-76
2023/02/08 06:47:37;;;;;;;38.53;18.20;;;;;;;-5.96;66.22;96573.75;5094044;27;20030;-76
2023/02/08 06:50:02;;;;;;;31.05;16.98;;;;;;;-5.89;66.46;96567.88;5092589;27;20035;-76
2023/02/08 06:52:28;;;;;;;28.75;15.18;;;;;;;-5.76;66.20;96565.47;5122620;27;20096;-76
2023/02/08 06:54:53;;;;;;;29.30;17.00;;;;;;;-5.70;65.88;96565.50;5094835;27;20027;-76
2023/02/08 06:57:19;;;;;;;27.90;14.27;;;;;;;-6.21;65.67;96478.19;5128827;27;20066;-76
2023/02/08 06:59:44;;;;;;;23.73;13.20;;;;;;;-5.65;65.91;96551.19;5107023;27;20035;-76
2023/02/08 07:02:14;;;;;;;25.50;14.30;;;;;;;-5.63;65.46;96529.25;5127845;27;20080;-76
2023/02/08 07:04:40;;;;;;;25.58;13.68;;;;;;;-5.26;64.47;96578.50;5125856;27;20035;-76
2023/02/08 07:07:06;;;;;;;25.80;14.27;;;;;;;-5.65;64.81;96500.56;5110286;27;20031;-76
2023/02/08 07:09:35;;;;;;;23.90;14.13;;;;;;;-5.32;64.42;96550.59;5092561;27;20032;-76
2023/02/08 07:12:03;;;;;;;21.52;12.85;;;;;;;-5.22;64.69;96567.53;5118602;27;20537;-75
2023/02/08 07:14:32;;;;;;;23.40;13.05;;;;;;;-5.08;64.35;96579.47;5100214;28;20039;-76
2023/02/08 07:16:58;;;;;;;30.65;15.57;;;;;;;-4.74;63.52;96581.31;5123491;27;20046;-76
2023/02/08 07:19:24;;;;;;;22.48;13.05;;;;;;;-3.79;61.37;96580.75;5109074;27;20043;-76
2023/02/08 07:21:49;;;;;;;64.60;26.67;;;;;;;-4.40;59.67;96479.13;5116331;27;20073;-76
2023/02/08 07:24:15;;;;;;;98.57;38.78;;;;;;;-4.37;59.21;96489.31;5113381;27;20421;-76
2023/02/08 07:26:40;;;;;;;66.95;28.15;;;;;;;-4.46;59.62;96484.19;5129880;27;20492;-76
2023/02/08 07:29:06;;;;;;;48.13;26.33;;;;;;;-3.52;58.89;96609.59;5106046;28;20114;-76
2023/02/08 07:31:31;;;;;;;37.47;21.67;;;;;;;-4.34;57.96;96507.91;5108680;28;20059;-76
2023/02/08 07:33:58;;;;;;;30.52;18.58;;;;;;;-4.41;59.95;96604.31;5111123;27;20542;-76
2023/02/08 07:36:23;;;;;;;30.77;18.00;;;;;;;-3.94;59.34;96616.31;5107639;28;20108;-76
2023/02/08 07:38:49;;;;;;;34.53;19.70;;;;;;;-3.36;57.73;96613.84;5110675;27;20046;-77
2023/02/08 07:41:14;;;;;;;35.58;20.02;;;;;;;-2.68;56.29;96611.22;5096306;27;20035;-77
2023/02/08 07:43:40;;;;;;;36.15;21.33;;;;;;;-1.60;53.46;96602.22;5097750;27;20489;-77
2023/02/08 07:46:14;;;;;;;36.30;21.42;;;;;;;-1.90;53.16;96599.00;5133435;27;20039;-77
2023/02/08 07:48:39;;;;;;;33.50;20.08;;;;;;;-1.36;50.81;96520.44;5115118;27;20034;-77
2023/02/08 07:51:05;;;;;;;33.85;20.15;;;;;;;1.06;46.01;96590.50;5110777;28;20469;-77
2023/02/08 07:53:31;;;;;;;31.35;19.25;;;;;;;2.25;43.13;96591.59;5112542;27;20027;-77
2023/02/08 07:55:56;;;;;;;30.23;19.65;;;;;;;2.98;41.41;96545.41;5113369;27;20042;-77
2023/02/08 07:58:22;;;;;;;35.03;23.02;;;;;;;3.87;38.63;96532.69;5096040;27;20504;-77
2023/02/08 08:00:47;;;;;;;35.13;23.90;;;;;;;4.66;36.93;96564.59;5096166;27;20083;-77
2023/02/08 08:03:13;;;;;;;35.80;24.48;;;;;;;5.58;35.84;96582.97;5112762;27;20031;-77
2023/02/08 08:05:41;;;;;;;38.92;25.35;;;;;;;6.49;34.09;96582.25;5095856;27;20085;-77
2023/02/08 08:08:08;;;;;;;38.53;25.95;;;;;;;7.27;32.33;96565.34;5095951;27;20035;-77
2023/02/08 08:10:33;;;;;;;31.42;22.98;;;;;;;7.26;31.89;96504.22;5097467;27;20424;-77
2023/02/08 08:12:59;;;;;;;30.92;20.77;;;;;;;7.83;30.43;96543.97;5097276;27;20031;-77
2023/02/08 08:15:24;;;;;;;34.20;23.02;;;;;;;7.97;29.62;96494.19;5114169;27;20116;-77
2023/02/08 08:17:50;;;;;;;35.80;24.70;;;;;;;7.46;30.21;96470.56;5113943;27;20023;-77
2023/02/08 08:20:15;;;;;;;37.95;26.80;;;;;;;6.28;32.09;96513.41;5131427;27;20053;-77
2023/02/08 08:22:41;;;;;;;37.58;25.02;;;;;;;5.69;33.64;96574.88;5131324;27;20027;-77
2023/02/08 08:25:06;;;;;;;35.95;24.15;;;;;;;4.36;35.17;96551.78;5114053;27;20034;-77
2023/02/08 08:27:33;;;;;;;36.92;24.30;;;;;;;3.66;36.89;96566.72;5096965;27;20385;-77
2023/02/08 08:29:59;;;;;;;35.50;23.83;;;;;;;3.38;37.75;96600.88;5097370;27;20039;-77
2023/02/08 08:32:25;;;;;;;40.80;25.75;;;;;;;2.69;38.56;96594.88;5096833;28;20054;-77
2023/02/08 08:34:50;;;;;;;43.80;26.60;;;;;;;2.16;39.87;96592.63;5114103;27;20035;-77
2023/02/08 08:37:16;;;;;;;41.33;26.60;;;;;;;1.52;41.67;96592.22;5113008;28;20497;-77
2023/02/08 08:39:42;;;;;;;39.10;26.15;;;;;;;0.51;42.55;96501.06;5097224;27;20078;-77
2023/02/08 08:42:07;;;;;;;38.92;23.27;;;;;;;0.85;42.68;96589.16;5113955;27;20086;-76
2023/02/08 08:44:33;;;;;;;28.38;17.70;;;;;;;0.69;41.86;96595.38;5096895;28;20071;-77
2023/02/08 08:46:59;;;;;;;17.80;11.05;;;;;;;-0.04;40.76;96520.63;5131781;27;20031;-77
2023/02/08 08:49:25;;;;;;;24.35;14.75;;;;;;;-0.23;41.48;96492.78;5097078;28;20458;-77
2023/02/08 08:51:50;;;;;;;39.30;22.88;;;;;;;-0.27;44.00;96510.72;5097022;28;20084;-77
2023/02/08 08:54:16;;;;;;;30.08;19.55;;;;;;;-0.07;43.53;96587.94;5096602;28;20512;-77
2023/02/08 08:56:42;;;;;;;27.30;16.30;;;;;;;-0.57;43.45;96533.22;5096458;28;20114;-76
2023/02/08 08:59:07;;;;;;;22.73;13.13;;;;;;;-0.68;43.73;96545.28;5113705;28;20477;-76
2023/02/08 09:01:33;;;;;;;21.50;12.82;;;;;;;-1.09;44.13;96499.78;5113624;28;20034;-76
2023/02/08 09:03:58;;;;;;;26.25;15.00;;;;;;;-1.35;45.25;96514.47;5130841;28;20173;-77
2023/02/08 09:06:24;;;;;;;20.80;12.43;;;;;;;-0.54;44.83;96627.66;5113405;28;20027;-77
2023/02/08 09:08:49;;;;;;;20.73;11.15;;;;;;;-1.81;44.61;96525.06;5113575;28;20124;-77
2023/02/08 09:11:15;;;;;;;17.02;10.45;;;;;;;-1.40;44.67;96546.81;5113712;28;20031;-76
2023/02/08 09:13:40;;;;;;;15.13;9.57;;;;;;;-1.30;44.32;96579.91;5112940;28;20561;-76
2023/02/08 09:16:14;;;;;;;21.10;12.55;;;;;;;-1.46;45.83;96625.06;5095583;28;20417;-76
2023/02/08 09:18:39;;;;;;;19.25;11.20;;;;;;;-1.76;46.31;96562.41;5113958;28;20092;-76
2023/02/08 09:21:19;;;;;;;26.83;12.60;;;;;;;-1.76;46.52;96534.38;5131898;27;20629;-76
2023/02/08 09:23:46;;;;;;;35.05;20.90;;;;;;;-1.31;48.85;96640.28;5113382;28;20031;-76
2023/02/08 09:26:12;;;;;;;27.48;16.80;;;;;;;-1.44;47.97;96643.75;5097141;28;20074;-76
2023/02/08 09:28:38;;;;;;;27.52;15.68;;;;;;;-1.95;48.57;96628.78;5113371;28;20023;-77
2023/02/08 09:31:11;;;;;;;25.73;14.48;;;;;;;-2.85;48.44;96506.97;5113420;28;20649;-76
2023/02/08 09:33:37;;;;;;;22.67;13.52;;;;;;;-1.72;48.55;96653.28;5131516;27;20039;-76
2023/02/08 09:36:03;;;;;;;23.60;14.32;;;;;;;-1.69;49.03;96648.16;5131687;27;20083;-76
2023/02/08 09:38:28;;;;;;;17.63;11.00;;;;;;;-1.50;47.37;96638.72;5113174;28;20039;-76
2023/02/08 09:40:56;;;;;;;18.10;11.68;;;;;;;-1.52;46.97;96638.69;5113239;28;20027;-76
2023/02/08 09:43:40;;;;;;;17.83;11.23;;;;;;;-1.47;47.06;96639.53;5131654;27;20035;-76
2023/02/08 09:46:22;;;;;;;17.88;10.45;;;;;;;-1.31;46.59;96624.09;5097529;28;20042;-76
2023/02/08 09:48:51;;;;;;;16.80;10.48;;;;;;;-1.65;46.83;96560.63;5113490;28;20031;-76
2023/02/08 09:51:38;;;;;;;18.98;10.50;;;;;;;-1.60;46.71;96551.25;5131671;27;20031;-76
2023/02/08 09:54:08;;;;;;;16.85;10.65;;;;;;;-1.35;45.97;96633.50;5130432;28;20127;-76
2023/02/08 09:56:35;;;;;;;18.63;10.40;;;;;;;-1.33;46.83;96634.31;5130173;28;20070;-76
2023/02/08 09:59:01;;;;;;;20.58;12.00;;;;;;;-2.17;47.02;96528.72;5097588;27;20035;-76
2023/02/08 10:01:28;;;;;;;21.55;12.75;;;;;;;-1.55;46.88;96630.25;5135397;27;20034;-76
2023/02/08 10:04:34;;;;;;;29.38;13.90;;;;;;;-1.36;47.88;96630.09;5116845;27;20031;-76
2023/02/08 10:07:00;;;;;;;22.35;12.98;;;;;;;-1.29;46.81;96579.88;5122579;27;20062;-76
2023/02/08 10:09:25;;;;;;;21.83;12.73;;;;;;;-1.05;46.86;96624.75;5120457;27;20078;-76
2023/02/08 10:12:26;;;;;;;19.23;11.48;;;;;;;-1.34;46.78;96624.97;5137161;27;20023;-76
2023/02/08 10:15:24;;;;;;;21.63;11.53;;;;;;;-1.43;47.15;96623.34;5094718;28;20130;-76
2023/02/08 10:18:08;;;;;;;20.75;11.70;;;;;;;-1.49;47.41;96618.28;5140655;27;20137;-76
2023/02/08 10:20:59;;;;;;;19.50;11.85;;;;;;;-1.29;47.29;96619.84;5152642;27;20030;-76
2023/02/08 10:23:46;;;;;;;22.63;13.57;;;;;;;-1.07;47.12;96617.97;5155791;27;20492;-76
2023/02/08 10:26:24;;;;;;;27.63;15.63;;;;;;;-0.99;49.45;96622.13;5137271;27;20125;-76
2023/02/08 10:29:14;;;;;;;16.65;10.40;;;;;;;-1.06;45.87;96623.03;5154004;27;20563;-76
2023/02/08 10:31:55;;;;;;;22.23;13.15;;;;;;;-1.04;46.60;96621.31;5153648;27;20062;-76
2023/02/08 10:34:26;;;;;;;19.03;11.33;;;;;;;-1.37;47.40;96623.28;5153727;27;20034;-76
2023/02/08 10:36:52;;;;;;;;;;;;;;;-1.15;46.27;96621.41;5136978;27;20287;-76
2023/02/08 10:39:23;;;;;;;18.30;11.13;;;;;;;-0.88;45.74;96618.66;5136875;27;20380;-76
2023/02/08 10:41:49;;;;;;;17.88;11.27;;;;;;;-0.87;46.02;96625.44;5120295;27;20121;-77
2023/02/08 10:44:40;;;;;;;18.90;10.88;;;;;;;-0.76;44.99;96626.19;5119524;27;20126;-76
2023/02/08 10:47:33;;;;;;;19.48;12.43;;;;;;;-0.95;46.07;96621.28;5155438;27;20030;-76
2023/02/08 10:50:01;;;;;;;19.67;11.20;;;;;;;-1.83;45.84;96505.56;5155001;27;20027;-76
2023/02/08 10:52:26;;;;;;;28.83;16.65;;;;;;;-1.62;46.38;96537.66;5155158;27;20022;-76
2023/02/08 10:54:52;;;;;;;20.75;11.45;;;;;;;-2.14;45.66;96474.38;5136450;27;20548;-76
2023/02/08 10:57:21;;;;;;;18.77;9.85;;;;;;;-1.71;45.04;96527.53;5153872;27;20023;-76
2023/02/08 10:59:51;;;;;;;13.73;8.27;;;;;;;-1.53;44.62;96529.97;5136654;27;20041;-76
2023/02/08 11:02:28;;;;;;;16.67;11.50;;;;;;;-1.44;44.53;96536.69;5136409;27;20495;-76
2023/02/08 11:05:02;;;;;;;14.77;9.10;;;;;;;-1.45;45.44;96632.72;5120301;27;20030;-76
2023/02/08 11:07:28;;;;;;;16.90;9.80;;;;;;;-2.32;46.29;96521.97;5154919;27;20477;-76
2023/02/08 11:09:53;;;;;;;14.60;9.10;;;;;;;-1.72;45.96;96632.91;5154301;27;20048;-76
2023/02/08 11:12:20;;;;;;;16.27;9.80;;;;;;;-1.65;46.01;96626.88;5153275;27;20568;-76
2023/02/08 11:14:50;;;;;;;17.35;10.07;;;;;;;-2.54;46.98;96528.03;5154609;27;20027;-76
2023/02/08 11:17:34;;;;;;;18.93;10.33;;;;;;;-2.19;46.61;96547.41;5136043;27;20059;-76
2023/02/08 11:19:59;;;;;;;14.68;9.02;;;;;;;-2.34;47.24;96545.75;5135838;27;20027;-76
2023/02/08 11:22:26;;;;;;;16.13;9.43;;;;;;;-2.41;48.45;96616.22;5136173;27;20440;-76
2023/02/08 11:25:04;;;;;;;15.00;9.73;;;;;;;-2.34;47.96;96592.44;5153456;27;20071;-76
2023/02/08 11:27:39;;;;;;;18.52;10.50;;;;;;;-2.70;48.06;96545.09;5153015;27;20512;-76
2023/02/08 11:30:13;;;;;;;15.70;9.55;;;;;;;-2.06;47.73;96622.88;5153168;27;20415;-76
2023/02/08 11:32:46;;;;;;;16.25;9.80;;;;;;;-2.18;47.90;96622.91;5153975;27;20050;-76